AAL2635 MMTL-MMMX
Flight info
| Callsign | AAL2635 |
|---|---|
| Flight time | 1h 51m |
| Altitude | 34000 |
| Route | XOLP1A XOLPO UT30 MORIC UT90 UBVOV UT101 ENAGA ENAG3A |
| Aircraft | A321/M-FAA/L |
Departure
| Time | 2026-05-04 21:29 |
|---|---|
| Airport | Felipe Carrillo Puerto International Airport Tulum (MMTL) |
Arrival
| Time | 2026-05-04 23:20 |
|---|---|
| Airport | Mexico City Benito Juárez International Airport (MMMX) |
| Time | Latitude | Longitude | Altitude | Speed | Heading |
|---|---|---|---|---|---|
| 2026-05-04 21:00 | 20.16630 | -87.65650 | 56 ft | 0 kts | 210° |
| 2026-05-04 21:18 | 20.16644 | -87.65641 | 52 ft | 4 kts | 210° |
| 2026-05-04 21:19 | 20.16667 | -87.65627 | 51 ft | 4 kts | 210° |
| 2026-05-04 21:19 | 20.16690 | -87.65613 | 51 ft | 3 kts | 210° |
| 2026-05-04 21:19 | 20.16707 | -87.65596 | 53 ft | 4 kts | 261° |
| 2026-05-04 21:19 | 20.16703 | -87.65571 | 53 ft | 4 kts | 298° |
| 2026-05-04 21:20 | 20.16695 | -87.65556 | 50 ft | 2 kts | 300° |
| 2026-05-04 21:22 | 20.16697 | -87.65560 | 50 ft | 1 kts | 300° |
| 2026-05-04 21:22 | 20.16704 | -87.65573 | 53 ft | 3 kts | 300° |
| 2026-05-04 21:23 | 20.16731 | -87.65623 | 56 ft | 13 kts | 300° |
| 2026-05-04 21:23 | 20.16782 | -87.65718 | 54 ft | 13 kts | 300° |
| 2026-05-04 21:23 | 20.16850 | -87.65750 | 56 ft | 12 kts | 7° |
| 2026-05-04 21:23 | 20.16908 | -87.65805 | 53 ft | 12 kts | 299° |
| 2026-05-04 21:24 | 20.16953 | -87.65889 | 50 ft | 13 kts | 300° |
| 2026-05-04 21:24 | 20.17002 | -87.65978 | 55 ft | 15 kts | 300° |
| 2026-05-04 21:24 | 20.17067 | -87.66097 | 54 ft | 22 kts | 299° |
| 2026-05-04 21:24 | 20.17146 | -87.66244 | 52 ft | 23 kts | 300° |
| 2026-05-04 21:25 | 20.17227 | -87.66394 | 55 ft | 24 kts | 300° |
| 2026-05-04 21:25 | 20.17310 | -87.66546 | 54 ft | 24 kts | 300° |
| 2026-05-04 21:25 | 20.17393 | -87.66700 | 56 ft | 24 kts | 300° |
| 2026-05-04 21:25 | 20.17476 | -87.66855 | 56 ft | 24 kts | 300° |
| 2026-05-04 21:26 | 20.17561 | -87.67013 | 53 ft | 25 kts | 299° |
| 2026-05-04 21:26 | 20.17646 | -87.67173 | 57 ft | 25 kts | 299° |
| 2026-05-04 21:26 | 20.17733 | -87.67335 | 55 ft | 25 kts | 300° |
| 2026-05-04 21:26 | 20.17822 | -87.67500 | 55 ft | 26 kts | 300° |
| 2026-05-04 21:27 | 20.17894 | -87.67636 | 54 ft | 9 kts | 300° |
| 2026-05-04 21:27 | 20.17934 | -87.67691 | 53 ft | 9 kts | 334° |
| 2026-05-04 21:27 | 20.17997 | -87.67675 | 57 ft | 10 kts | 27° |
| 2026-05-04 21:27 | 20.18058 | -87.67622 | 58 ft | 13 kts | 74° |
| 2026-05-04 21:28 | 20.18032 | -87.67553 | 57 ft | 0 kts | 119° |
| 2026-05-04 21:28 | 20.18024 | -87.67538 | 56 ft | 11 kts | 119° |
| 2026-05-04 21:28 | 20.17859 | -87.67231 | 55 ft | 84 kts | 120° |
| 2026-05-04 21:29 | 20.17466 | -87.66501 | 55 ft | 141 kts | 120° |
| 2026-05-04 21:29 | 20.16909 | -87.65473 | 240 ft | 167 kts | 118° |
| 2026-05-04 21:29 | 20.16312 | -87.64453 | 950 ft | 165 kts | 124° |
| 2026-05-04 21:29 | 20.15232 | -87.63844 | 1245 ft | 196 kts | 172° |
| 2026-05-04 21:30 | 20.13846 | -87.64278 | 1475 ft | 223 kts | 206° |
| 2026-05-04 21:30 | 20.12513 | -87.65177 | 1968 ft | 230 kts | 211° |
| 2026-05-04 21:30 | 20.11186 | -87.66132 | 2548 ft | 230 kts | 212° |
| 2026-05-04 21:30 | 20.09830 | -87.67098 | 2877 ft | 244 kts | 213° |
| 2026-05-04 21:31 | 20.06856 | -87.69140 | 3637 ft | 267 kts | 211° |
| 2026-05-04 21:31 | 20.05260 | -87.70201 | 4262 ft | 272 kts | 211° |
| 2026-05-04 21:31 | 20.03773 | -87.71453 | 4945 ft | 276 kts | 229° |
| 2026-05-04 21:32 | 20.02793 | -87.73201 | 5619 ft | 278 kts | 251° |
| 2026-05-04 21:32 | 20.02389 | -87.75210 | 6317 ft | 279 kts | 261° |
| 2026-05-04 21:32 | 20.02077 | -87.77259 | 7003 ft | 281 kts | 261° |
| 2026-05-04 21:32 | 20.01757 | -87.79320 | 7655 ft | 283 kts | 261° |
| 2026-05-04 21:33 | 20.01434 | -87.81393 | 8316 ft | 286 kts | 261° |
| 2026-05-04 21:33 | 20.01109 | -87.83486 | 8969 ft | 288 kts | 261° |
| 2026-05-04 21:33 | 20.00782 | -87.85588 | 9643 ft | 289 kts | 261° |
| 2026-05-04 21:33 | 20.00450 | -87.87720 | 10084 ft | 300 kts | 261° |
| 2026-05-04 21:34 | 20.00101 | -87.89956 | 10211 ft | 320 kts | 261° |
| 2026-05-04 21:34 | 19.99725 | -87.92334 | 10552 ft | 331 kts | 261° |
| 2026-05-04 21:34 | 19.99519 | -87.94781 | 11061 ft | 335 kts | 271° |
| 2026-05-04 21:34 | 19.99807 | -87.97242 | 11610 ft | 337 kts | 284° |
| 2026-05-04 21:35 | 20.00594 | -87.99593 | 12192 ft | 339 kts | 296° |
| 2026-05-04 21:35 | 20.01702 | -88.01815 | 12741 ft | 341 kts | 298° |
| 2026-05-04 21:35 | 20.02818 | -88.04052 | 13304 ft | 344 kts | 297° |
| 2026-05-04 21:35 | 20.03938 | -88.06318 | 13828 ft | 347 kts | 297° |
| 2026-05-04 21:36 | 20.05060 | -88.08600 | 14304 ft | 349 kts | 297° |
| 2026-05-04 21:36 | 20.06042 | -88.10959 | 14766 ft | 351 kts | 287° |
| 2026-05-04 21:36 | 20.06518 | -88.13509 | 15219 ft | 354 kts | 274° |
| 2026-05-04 21:36 | 20.06433 | -88.16129 | 15682 ft | 357 kts | 261° |
| 2026-05-04 21:37 | 20.05776 | -88.18680 | 16145 ft | 360 kts | 250° |
| 2026-05-04 21:37 | 20.04875 | -88.21177 | 16610 ft | 363 kts | 250° |
| 2026-05-04 21:37 | 20.03989 | -88.23662 | 17076 ft | 365 kts | 250° |
| 2026-05-04 21:37 | 20.03075 | -88.26226 | 17552 ft | 367 kts | 250° |
| 2026-05-04 21:38 | 20.02165 | -88.28772 | 18010 ft | 370 kts | 250° |
| 2026-05-04 21:38 | 20.01260 | -88.31294 | 18425 ft | 372 kts | 250° |
| 2026-05-04 21:38 | 20.00335 | -88.33875 | 18811 ft | 374 kts | 250° |
| 2026-05-04 21:38 | 19.99409 | -88.36466 | 19213 ft | 376 kts | 251° |
| 2026-05-04 21:39 | 19.98479 | -88.39073 | 19624 ft | 378 kts | 251° |
| 2026-05-04 21:39 | 19.97541 | -88.41692 | 20032 ft | 380 kts | 251° |
| 2026-05-04 21:39 | 19.96593 | -88.44332 | 20439 ft | 383 kts | 251° |
| 2026-05-04 21:39 | 19.95639 | -88.46980 | 20848 ft | 385 kts | 251° |
| 2026-05-04 21:40 | 19.94679 | -88.49643 | 21243 ft | 387 kts | 251° |
| 2026-05-04 21:40 | 19.93716 | -88.52321 | 21637 ft | 389 kts | 251° |
| 2026-05-04 21:40 | 19.92745 | -88.55017 | 22040 ft | 392 kts | 252° |
| 2026-05-04 21:40 | 19.91770 | -88.57725 | 22444 ft | 394 kts | 252° |
| 2026-05-04 21:41 | 19.90788 | -88.60452 | 22846 ft | 396 kts | 252° |
| 2026-05-04 21:41 | 19.89802 | -88.63193 | 23230 ft | 398 kts | 252° |
| 2026-05-04 21:41 | 19.88805 | -88.65956 | 23586 ft | 401 kts | 252° |
| 2026-05-04 21:41 | 19.87803 | -88.68725 | 23890 ft | 403 kts | 252° |
| 2026-05-04 21:42 | 19.86791 | -88.71519 | 24185 ft | 406 kts | 252° |
| 2026-05-04 21:42 | 19.85777 | -88.74322 | 24477 ft | 408 kts | 252° |
| 2026-05-04 21:42 | 19.84769 | -88.77109 | 24761 ft | 410 kts | 252° |
| 2026-05-04 21:42 | 19.83743 | -88.79946 | 25044 ft | 413 kts | 252° |
| 2026-05-04 21:43 | 19.82709 | -88.82806 | 25333 ft | 415 kts | 253° |
| 2026-05-04 21:43 | 19.81669 | -88.85674 | 25602 ft | 418 kts | 253° |
| 2026-05-04 21:43 | 19.80616 | -88.88566 | 25870 ft | 421 kts | 252° |
| 2026-05-04 21:43 | 19.79559 | -88.91472 | 26123 ft | 423 kts | 253° |
| 2026-05-04 21:44 | 19.78496 | -88.94405 | 26369 ft | 427 kts | 253° |
| 2026-05-04 21:44 | 19.77428 | -88.97357 | 26617 ft | 430 kts | 253° |
| 2026-05-04 21:44 | 19.76610 | -89.00390 | 26874 ft | 427 kts | 263° |
| 2026-05-04 21:44 | 19.76294 | -89.03521 | 27122 ft | 425 kts | 273° |
| 2026-05-04 21:45 | 19.76405 | -89.06651 | 27400 ft | 425 kts | 277° |
| 2026-05-04 21:45 | 19.76568 | -89.09750 | 27683 ft | 427 kts | 277° |
| 2026-05-04 21:45 | 19.76727 | -89.12905 | 27958 ft | 429 kts | 277° |
| 2026-05-04 21:45 | 19.76884 | -89.16075 | 28235 ft | 431 kts | 277° |
| 2026-05-04 21:46 | 19.77040 | -89.19266 | 28506 ft | 433 kts | 277° |
| 2026-05-04 21:46 | 19.77146 | -89.21425 | 28696 ft | 435 kts | 277° |
| 2026-05-04 21:46 | 19.77302 | -89.24638 | 28963 ft | 437 kts | 277° |
| 2026-05-04 21:46 | 19.77459 | -89.27874 | 29210 ft | 439 kts | 277° |
| 2026-05-04 21:47 | 19.77615 | -89.31077 | 29472 ft | 442 kts | 277° |
| 2026-05-04 21:47 | 19.77776 | -89.34341 | 29731 ft | 444 kts | 277° |
| 2026-05-04 21:47 | 19.77939 | -89.37627 | 29973 ft | 446 kts | 277° |
| 2026-05-04 21:47 | 19.78103 | -89.40920 | 30193 ft | 448 kts | 277° |
| 2026-05-04 21:48 | 19.78269 | -89.44223 | 30430 ft | 449 kts | 277° |
| 2026-05-04 21:48 | 19.78431 | -89.47537 | 30681 ft | 450 kts | 276° |
| 2026-05-04 21:48 | 19.78590 | -89.50856 | 30941 ft | 450 kts | 276° |
| 2026-05-04 21:48 | 19.78741 | -89.54179 | 31241 ft | 450 kts | 276° |
| 2026-05-04 21:49 | 19.78890 | -89.57488 | 31637 ft | 447 kts | 276° |
| 2026-05-04 21:49 | 19.79045 | -89.60778 | 32047 ft | 444 kts | 276° |
| 2026-05-04 21:49 | 19.79201 | -89.64045 | 32442 ft | 442 kts | 275° |
| 2026-05-04 21:49 | 19.79356 | -89.67298 | 32748 ft | 441 kts | 275° |
| 2026-05-04 21:50 | 19.79513 | -89.70549 | 33063 ft | 441 kts | 275° |
| 2026-05-04 21:50 | 19.79667 | -89.73793 | 33418 ft | 439 kts | 275° |
| 2026-05-04 21:50 | 19.79821 | -89.77026 | 33782 ft | 437 kts | 275° |
| 2026-05-04 21:50 | 19.79972 | -89.80240 | 33901 ft | 433 kts | 275° |
| 2026-05-04 21:51 | 19.80112 | -89.83354 | 33915 ft | 425 kts | 275° |
| 2026-05-04 21:51 | 19.80394 | -89.89585 | 33916 ft | 421 kts | 275° |
| 2026-05-04 21:52 | 19.80681 | -89.95800 | 33917 ft | 421 kts | 275° |
| 2026-05-04 21:52 | 19.80965 | -90.02010 | 33912 ft | 421 kts | 275° |
| 2026-05-04 21:53 | 19.81245 | -90.08234 | 33911 ft | 422 kts | 275° |
| 2026-05-04 21:53 | 19.81519 | -90.14462 | 33916 ft | 423 kts | 275° |
| 2026-05-04 21:54 | 19.81792 | -90.20709 | 33919 ft | 423 kts | 275° |
| 2026-05-04 21:54 | 19.82068 | -90.26952 | 33927 ft | 423 kts | 275° |
| 2026-05-04 21:55 | 19.82343 | -90.33191 | 33932 ft | 423 kts | 275° |
| 2026-05-04 21:55 | 19.82611 | -90.39434 | 33923 ft | 423 kts | 275° |
| 2026-05-04 21:56 | 19.82877 | -90.45651 | 33917 ft | 424 kts | 275° |
| 2026-05-04 21:56 | 19.83413 | -90.51867 | 33913 ft | 421 kts | 285° |
| 2026-05-04 21:57 | 19.84803 | -90.57905 | 33916 ft | 421 kts | 286° |
| 2026-05-04 21:57 | 19.86182 | -90.63956 | 33926 ft | 422 kts | 285° |
| 2026-05-04 21:58 | 19.87552 | -90.70007 | 33931 ft | 422 kts | 285° |
| 2026-05-04 21:58 | 19.88926 | -90.76074 | 33929 ft | 422 kts | 285° |
| 2026-05-04 21:59 | 19.90293 | -90.82143 | 33922 ft | 422 kts | 285° |
| 2026-05-04 21:59 | 19.91671 | -90.88217 | 33926 ft | 422 kts | 285° |
| 2026-05-04 22:00 | 19.93047 | -90.94286 | 33930 ft | 422 kts | 285° |
| 2026-05-04 22:00 | 19.94418 | -91.00365 | 33933 ft | 423 kts | 285° |
| 2026-05-04 22:01 | 19.95773 | -91.06407 | 33937 ft | 423 kts | 285° |
| 2026-05-04 22:01 | 19.97137 | -91.12490 | 33937 ft | 423 kts | 285° |
| 2026-05-04 22:02 | 19.98502 | -91.18569 | 33926 ft | 423 kts | 285° |
| 2026-05-04 22:02 | 19.99868 | -91.24658 | 33937 ft | 424 kts | 285° |
| 2026-05-04 22:03 | 20.01233 | -91.30763 | 33938 ft | 424 kts | 285° |
| 2026-05-04 22:03 | 20.02555 | -91.36884 | 33946 ft | 425 kts | 284° |
| 2026-05-04 22:04 | 20.03825 | -91.43022 | 33943 ft | 425 kts | 284° |
| 2026-05-04 22:04 | 20.05087 | -91.49160 | 33941 ft | 425 kts | 284° |
| 2026-05-04 22:05 | 20.06359 | -91.55303 | 33939 ft | 425 kts | 284° |
| 2026-05-04 22:05 | 20.07628 | -91.61393 | 33945 ft | 425 kts | 284° |
| 2026-05-04 22:06 | 20.08915 | -91.67529 | 33947 ft | 425 kts | 284° |
| 2026-05-04 22:06 | 20.10195 | -91.73664 | 33948 ft | 425 kts | 284° |
| 2026-05-04 22:07 | 20.11465 | -91.79809 | 33951 ft | 425 kts | 284° |
| 2026-05-04 22:07 | 20.12735 | -91.85954 | 33966 ft | 425 kts | 284° |
| 2026-05-04 22:08 | 20.13998 | -91.92101 | 33958 ft | 425 kts | 284° |
| 2026-05-04 22:08 | 20.15264 | -91.98254 | 33953 ft | 426 kts | 284° |
| 2026-05-04 22:09 | 20.16528 | -92.04413 | 33940 ft | 426 kts | 284° |
| 2026-05-04 22:09 | 20.17792 | -92.10573 | 33943 ft | 426 kts | 284° |
| 2026-05-04 22:10 | 20.19052 | -92.16746 | 33949 ft | 426 kts | 284° |
| 2026-05-04 22:10 | 20.20301 | -92.22876 | 33953 ft | 426 kts | 284° |
| 2026-05-04 22:11 | 20.21570 | -92.29049 | 33952 ft | 426 kts | 284° |
| 2026-05-04 22:11 | 20.22831 | -92.35216 | 33943 ft | 426 kts | 285° |
| 2026-05-04 22:12 | 20.24089 | -92.41395 | 33944 ft | 426 kts | 284° |
| 2026-05-04 22:12 | 20.25333 | -92.47568 | 33944 ft | 426 kts | 284° |
| 2026-05-04 22:13 | 20.26577 | -92.53743 | 33942 ft | 426 kts | 284° |
| 2026-05-04 22:13 | 20.27820 | -92.59915 | 33944 ft | 426 kts | 284° |
| 2026-05-04 22:14 | 20.29075 | -92.66092 | 33948 ft | 427 kts | 284° |
| 2026-05-04 22:14 | 20.30319 | -92.72276 | 33941 ft | 427 kts | 284° |
| 2026-05-04 22:15 | 20.31561 | -92.78464 | 33937 ft | 428 kts | 284° |
| 2026-05-04 22:15 | 20.32800 | -92.84670 | 33941 ft | 428 kts | 284° |
| 2026-05-04 22:16 | 20.34028 | -92.90833 | 33949 ft | 428 kts | 284° |
| 2026-05-04 22:16 | 20.35270 | -92.97033 | 33948 ft | 428 kts | 284° |
| 2026-05-04 22:17 | 20.36511 | -93.03232 | 33945 ft | 428 kts | 284° |
| 2026-05-04 22:17 | 20.37745 | -93.09441 | 33944 ft | 428 kts | 284° |
| 2026-05-04 22:18 | 20.38977 | -93.15656 | 33940 ft | 429 kts | 284° |
| 2026-05-04 22:18 | 20.40206 | -93.21881 | 33946 ft | 429 kts | 284° |
| 2026-05-04 22:19 | 20.41437 | -93.28100 | 33944 ft | 429 kts | 284° |
| 2026-05-04 22:19 | 20.42663 | -93.34333 | 33949 ft | 429 kts | 284° |
| 2026-05-04 22:20 | 20.43892 | -93.40562 | 33953 ft | 429 kts | 284° |
| 2026-05-04 22:20 | 20.45119 | -93.46783 | 33954 ft | 429 kts | 284° |
| 2026-05-04 22:21 | 20.46340 | -93.53015 | 33954 ft | 429 kts | 284° |
| 2026-05-04 22:21 | 20.47557 | -93.59247 | 33954 ft | 429 kts | 284° |
| 2026-05-04 22:22 | 20.48767 | -93.65441 | 33949 ft | 429 kts | 284° |
| 2026-05-04 22:22 | 20.49990 | -93.71674 | 33948 ft | 429 kts | 284° |
| 2026-05-04 22:23 | 20.51208 | -93.77904 | 33947 ft | 429 kts | 284° |
| 2026-05-04 22:23 | 20.52413 | -93.84135 | 33943 ft | 429 kts | 284° |
| 2026-05-04 22:24 | 20.53620 | -93.90365 | 33940 ft | 429 kts | 284° |
| 2026-05-04 22:24 | 20.54830 | -93.96595 | 33942 ft | 429 kts | 284° |
| 2026-05-04 22:25 | 20.56041 | -94.02826 | 33948 ft | 429 kts | 284° |
| 2026-05-04 22:25 | 20.57234 | -94.09060 | 33945 ft | 429 kts | 284° |
| 2026-05-04 22:26 | 20.58417 | -94.15249 | 33945 ft | 429 kts | 284° |
| 2026-05-04 22:26 | 20.59615 | -94.21473 | 33936 ft | 428 kts | 284° |
| 2026-05-04 22:27 | 20.60813 | -94.27706 | 33938 ft | 428 kts | 284° |
| 2026-05-04 22:27 | 20.62006 | -94.33935 | 33936 ft | 428 kts | 284° |
| 2026-05-04 22:28 | 20.63204 | -94.40166 | 33934 ft | 428 kts | 284° |
| 2026-05-04 22:28 | 20.64396 | -94.46399 | 33927 ft | 428 kts | 284° |
| 2026-05-04 22:29 | 20.65582 | -94.52633 | 33935 ft | 428 kts | 284° |
| 2026-05-04 22:29 | 20.66765 | -94.58867 | 33927 ft | 428 kts | 284° |
| 2026-05-04 22:30 | 20.67944 | -94.65104 | 33934 ft | 428 kts | 284° |
| 2026-05-04 22:30 | 20.69114 | -94.71336 | 33934 ft | 428 kts | 284° |
| 2026-05-04 22:31 | 20.70285 | -94.77556 | 33932 ft | 427 kts | 284° |
| 2026-05-04 22:31 | 20.71458 | -94.83774 | 33932 ft | 427 kts | 284° |
| 2026-05-04 22:32 | 20.72629 | -94.90003 | 33932 ft | 427 kts | 284° |
| 2026-05-04 22:32 | 20.73783 | -94.96181 | 33936 ft | 427 kts | 284° |
| 2026-05-04 22:33 | 20.74016 | -95.02530 | 33949 ft | 433 kts | 265° |
| 2026-05-04 22:33 | 20.72880 | -95.08866 | 33934 ft | 434 kts | 262° |
| 2026-05-04 22:34 | 20.71705 | -95.15194 | 33924 ft | 434 kts | 263° |
| 2026-05-04 22:34 | 20.70538 | -95.21529 | 33920 ft | 435 kts | 263° |
| 2026-05-04 22:35 | 20.69366 | -95.27873 | 33917 ft | 435 kts | 262° |
| 2026-05-04 22:35 | 20.68390 | -95.33145 | 33919 ft | 435 kts | 263° |
| 2026-05-04 22:36 | 20.67214 | -95.39492 | 33923 ft | 435 kts | 263° |
| 2026-05-04 22:36 | 20.66033 | -95.45829 | 33928 ft | 435 kts | 263° |
| 2026-05-04 22:37 | 20.64854 | -95.52156 | 33924 ft | 434 kts | 263° |
| 2026-05-04 22:37 | 20.63676 | -95.58483 | 33925 ft | 434 kts | 263° |
| 2026-05-04 22:38 | 20.62495 | -95.64798 | 33922 ft | 434 kts | 262° |
| 2026-05-04 22:38 | 20.61303 | -95.71123 | 33921 ft | 434 kts | 262° |
| 2026-05-04 22:39 | 20.60119 | -95.77441 | 33924 ft | 434 kts | 262° |
| 2026-05-04 22:39 | 20.58943 | -95.83709 | 33921 ft | 434 kts | 262° |
| 2026-05-04 22:40 | 20.57754 | -95.90019 | 33924 ft | 434 kts | 262° |
| 2026-05-04 22:40 | 20.56558 | -95.96325 | 33918 ft | 433 kts | 262° |
| 2026-05-04 22:41 | 20.55353 | -96.02628 | 33914 ft | 433 kts | 262° |
| 2026-05-04 22:41 | 20.54150 | -96.08935 | 33907 ft | 433 kts | 262° |
| 2026-05-04 22:42 | 20.52955 | -96.15242 | 33910 ft | 434 kts | 262° |
| 2026-05-04 22:42 | 20.51747 | -96.21543 | 33911 ft | 434 kts | 262° |
| 2026-05-04 22:43 | 20.50539 | -96.27847 | 33905 ft | 434 kts | 262° |
| 2026-05-04 22:43 | 20.49332 | -96.34148 | 33908 ft | 434 kts | 262° |
| 2026-05-04 22:44 | 20.48124 | -96.40455 | 33904 ft | 434 kts | 262° |
| 2026-05-04 22:44 | 20.46910 | -96.46766 | 33904 ft | 434 kts | 262° |
| 2026-05-04 22:45 | 20.45698 | -96.53070 | 33907 ft | 434 kts | 261° |
| 2026-05-04 22:45 | 20.43872 | -96.62520 | 33906 ft | 434 kts | 261° |
| 2026-05-04 22:46 | 20.42651 | -96.68822 | 33906 ft | 434 kts | 261° |
| 2026-05-04 22:46 | 20.41437 | -96.75085 | 33906 ft | 434 kts | 261° |
| 2026-05-04 22:47 | 20.40206 | -96.81382 | 33911 ft | 434 kts | 261° |
| 2026-05-04 22:47 | 20.38898 | -96.87667 | 33904 ft | 435 kts | 258° |
| 2026-05-04 22:48 | 20.37216 | -96.93878 | 33900 ft | 436 kts | 255° |
| 2026-05-04 22:48 | 20.35393 | -97.00045 | 33903 ft | 436 kts | 255° |
| 2026-05-04 22:49 | 20.33617 | -97.06232 | 33909 ft | 436 kts | 256° |
| 2026-05-04 22:49 | 20.31899 | -97.12418 | 33916 ft | 436 kts | 256° |
| 2026-05-04 22:50 | 20.30206 | -97.18583 | 33902 ft | 436 kts | 256° |
| 2026-05-04 22:50 | 20.28487 | -97.24788 | 33903 ft | 437 kts | 256° |
| 2026-05-04 22:51 | 20.26748 | -97.30991 | 33892 ft | 437 kts | 256° |
| 2026-05-04 22:51 | 20.25010 | -97.37203 | 33895 ft | 437 kts | 256° |
| 2026-05-04 22:52 | 20.23274 | -97.43415 | 33895 ft | 437 kts | 256° |
| 2026-05-04 22:52 | 20.21530 | -97.49624 | 33898 ft | 437 kts | 256° |
| 2026-05-04 22:53 | 20.19801 | -97.55786 | 33901 ft | 437 kts | 256° |
| 2026-05-04 22:53 | 20.18051 | -97.61991 | 33866 ft | 438 kts | 256° |
| 2026-05-04 22:54 | 20.16302 | -97.68209 | 33877 ft | 439 kts | 256° |
| 2026-05-04 22:54 | 20.14538 | -97.74450 | 33878 ft | 440 kts | 256° |
| 2026-05-04 22:55 | 20.12768 | -97.80695 | 33889 ft | 441 kts | 256° |
| 2026-05-04 22:55 | 20.11000 | -97.86945 | 33889 ft | 441 kts | 256° |
| 2026-05-04 22:56 | 20.09236 | -97.93186 | 33895 ft | 441 kts | 256° |
| 2026-05-04 22:56 | 20.07465 | -97.99454 | 33907 ft | 452 kts | 255° |
| 2026-05-04 22:57 | 20.05639 | -98.05899 | 33905 ft | 457 kts | 255° |
| 2026-05-04 22:57 | 20.03794 | -98.12371 | 33905 ft | 457 kts | 255° |
| 2026-05-04 22:58 | 20.01957 | -98.18848 | 33903 ft | 457 kts | 256° |
| 2026-05-04 22:58 | 20.00470 | -98.25410 | 33902 ft | 456 kts | 260° |
| 2026-05-04 22:59 | 19.99259 | -98.32024 | 33904 ft | 456 kts | 261° |
| 2026-05-04 22:59 | 19.98019 | -98.38640 | 33895 ft | 457 kts | 260° |
| 2026-05-04 23:00 | 19.96688 | -98.45248 | 33897 ft | 457 kts | 259° |
| 2026-05-04 23:00 | 19.95322 | -98.51865 | 33886 ft | 458 kts | 259° |
| 2026-05-04 23:01 | 19.93965 | -98.58482 | 33888 ft | 458 kts | 260° |
| 2026-05-04 23:01 | 19.92623 | -98.65056 | 33876 ft | 458 kts | 259° |
| 2026-05-04 23:02 | 19.91273 | -98.71666 | 33923 ft | 458 kts | 259° |
| 2026-05-04 23:02 | 19.90327 | -98.78340 | 34003 ft | 457 kts | 265° |
| 2026-05-04 23:03 | 19.89598 | -98.85039 | 33989 ft | 450 kts | 265° |
| 2026-05-04 23:03 | 19.89234 | -98.88305 | 33008 ft | 442 kts | 265° |
| 2026-05-04 23:03 | 19.89114 | -98.91552 | 31769 ft | 439 kts | 275° |
| 2026-05-04 23:04 | 19.89324 | -98.94801 | 30410 ft | 442 kts | 275° |
| 2026-05-04 23:04 | 19.89547 | -98.98041 | 29253 ft | 437 kts | 275° |
| 2026-05-04 23:04 | 19.89769 | -99.01240 | 28148 ft | 431 kts | 275° |
| 2026-05-04 23:04 | 19.89984 | -99.04391 | 27064 ft | 424 kts | 275° |
| 2026-05-04 23:05 | 19.90193 | -99.07490 | 26032 ft | 418 kts | 275° |
| 2026-05-04 23:05 | 19.90399 | -99.10554 | 25035 ft | 413 kts | 276° |
| 2026-05-04 23:05 | 19.90602 | -99.13574 | 24112 ft | 407 kts | 276° |
| 2026-05-04 23:05 | 19.90799 | -99.16558 | 23316 ft | 397 kts | 275° |
| 2026-05-04 23:06 | 19.90983 | -99.19384 | 22818 ft | 376 kts | 275° |
| 2026-05-04 23:06 | 19.91166 | -99.22162 | 21719 ft | 375 kts | 275° |
| 2026-05-04 23:06 | 19.91349 | -99.24923 | 20956 ft | 375 kts | 276° |
| 2026-05-04 23:06 | 19.91525 | -99.27674 | 20525 ft | 372 kts | 274° |
| 2026-05-04 23:07 | 19.91316 | -99.30363 | 20102 ft | 370 kts | 258° |
| 2026-05-04 23:07 | 19.90685 | -99.33004 | 19655 ft | 368 kts | 257° |
| 2026-05-04 23:07 | 19.90039 | -99.35629 | 19224 ft | 365 kts | 256° |
| 2026-05-04 23:07 | 19.89397 | -99.38227 | 18808 ft | 363 kts | 257° |
| 2026-05-04 23:08 | 19.88761 | -99.40812 | 18425 ft | 360 kts | 257° |
| 2026-05-04 23:08 | 19.88116 | -99.43374 | 18003 ft | 358 kts | 253° |
| 2026-05-04 23:08 | 19.87060 | -99.45757 | 17797 ft | 359 kts | 237° |
| 2026-05-04 23:08 | 19.85446 | -99.47797 | 17822 ft | 364 kts | 227° |
| 2026-05-04 23:09 | 19.83693 | -99.49750 | 17822 ft | 366 kts | 227° |
| 2026-05-04 23:09 | 19.81932 | -99.51709 | 17821 ft | 368 kts | 226° |
| 2026-05-04 23:09 | 19.79899 | -99.53349 | 17823 ft | 369 kts | 204° |
| 2026-05-04 23:09 | 19.77413 | -99.53932 | 17834 ft | 367 kts | 177° |
| 2026-05-04 23:10 | 19.74982 | -99.53330 | 17825 ft | 364 kts | 150° |
| 2026-05-04 23:10 | 19.73041 | -99.51668 | 17829 ft | 358 kts | 125° |
| 2026-05-04 23:10 | 19.71660 | -99.49470 | 17827 ft | 358 kts | 120° |
| 2026-05-04 23:10 | 19.70375 | -99.47209 | 17828 ft | 358 kts | 118° |
| 2026-05-04 23:11 | 19.69108 | -99.44926 | 17825 ft | 359 kts | 119° |
| 2026-05-04 23:11 | 19.67829 | -99.42638 | 17462 ft | 359 kts | 120° |
| 2026-05-04 23:11 | 19.66540 | -99.40383 | 16962 ft | 351 kts | 120° |
| 2026-05-04 23:11 | 19.65283 | -99.38236 | 16482 ft | 335 kts | 121° |
| 2026-05-04 23:12 | 19.64069 | -99.36189 | 16048 ft | 320 kts | 121° |
| 2026-05-04 23:12 | 19.62901 | -99.34232 | 15643 ft | 308 kts | 121° |
| 2026-05-04 23:12 | 19.61779 | -99.32349 | 15233 ft | 297 kts | 121° |
| 2026-05-04 23:12 | 19.60696 | -99.30523 | 14824 ft | 288 kts | 121° |
| 2026-05-04 23:13 | 19.59487 | -99.28876 | 14436 ft | 280 kts | 137° |
| 2026-05-04 23:13 | 19.57963 | -99.27609 | 14035 ft | 278 kts | 144° |
| 2026-05-04 23:13 | 19.56406 | -99.26403 | 13647 ft | 275 kts | 143° |
| 2026-05-04 23:13 | 19.54887 | -99.25224 | 13233 ft | 273 kts | 143° |
| 2026-05-04 23:14 | 19.53217 | -99.24271 | 12818 ft | 275 kts | 161° |
| 2026-05-04 23:14 | 19.51346 | -99.23943 | 12467 ft | 272 kts | 181° |
| 2026-05-04 23:14 | 19.49498 | -99.24212 | 12124 ft | 267 kts | 192° |
| 2026-05-04 23:14 | 19.47722 | -99.24592 | 11810 ft | 253 kts | 192° |
| 2026-05-04 23:15 | 19.46033 | -99.24943 | 11454 ft | 241 kts | 192° |
| 2026-05-04 23:15 | 19.44409 | -99.25280 | 11102 ft | 236 kts | 192° |
| 2026-05-04 23:15 | 19.42814 | -99.25611 | 10875 ft | 232 kts | 192° |
| 2026-05-04 23:15 | 19.41228 | -99.25948 | 10838 ft | 233 kts | 193° |
| 2026-05-04 23:16 | 19.39651 | -99.26276 | 10595 ft | 228 kts | 192° |
| 2026-05-04 23:16 | 19.38097 | -99.26584 | 10055 ft | 227 kts | 188° |
| 2026-05-04 23:16 | 19.36567 | -99.26301 | 9865 ft | 229 kts | 153° |
| 2026-05-04 23:16 | 19.35459 | -99.25120 | 9840 ft | 230 kts | 116° |
| 2026-05-04 23:17 | 19.35214 | -99.23459 | 9870 ft | 234 kts | 82° |
| 2026-05-04 23:17 | 19.35545 | -99.21798 | 9930 ft | 218 kts | 74° |
| 2026-05-04 23:17 | 19.36075 | -99.20404 | 9859 ft | 195 kts | 61° |
| 2026-05-04 23:17 | 19.36734 | -99.19200 | 9631 ft | 184 kts | 58° |
| 2026-05-04 23:18 | 19.37374 | -99.18069 | 9453 ft | 180 kts | 58° |
| 2026-05-04 23:18 | 19.38013 | -99.16934 | 9365 ft | 179 kts | 58° |
| 2026-05-04 23:18 | 19.38650 | -99.15801 | 9287 ft | 179 kts | 58° |
| 2026-05-04 23:18 | 19.39288 | -99.14666 | 9187 ft | 180 kts | 58° |
| 2026-05-04 23:19 | 19.39930 | -99.13523 | 8960 ft | 181 kts | 58° |
| 2026-05-04 23:19 | 19.40568 | -99.12388 | 8643 ft | 178 kts | 59° |
| 2026-05-04 23:19 | 19.41196 | -99.11268 | 8162 ft | 174 kts | 60° |
| 2026-05-04 23:19 | 19.41805 | -99.10178 | 7688 ft | 169 kts | 64° |
| 2026-05-04 23:20 | 19.42418 | -99.09121 | 7506 ft | 168 kts | 63° |
| 2026-05-04 23:20 | 19.43005 | -99.08059 | 7327 ft | 165 kts | 66° |
| 2026-05-04 23:20 | 19.43518 | -99.07125 | 7302 ft | 109 kts | 58° |
| 2026-05-04 23:20 | 19.43759 | -99.06697 | 7303 ft | 46 kts | 58° |
| 2026-05-04 23:21 | 19.43942 | -99.06502 | 7303 ft | 29 kts | 19° |
| 2026-05-04 23:21 | 19.44090 | -99.06404 | 7302 ft | 18 kts | 28° |
| 2026-05-04 23:21 | 19.44166 | -99.06361 | 7302 ft | 0 kts | 27° |
| 2026-05-04 23:23 | 19.44171 | -99.06359 | 7302 ft | 3 kts | 27° |
| 2026-05-04 23:23 | 19.44229 | -99.06328 | 7302 ft | 15 kts | 24° |
| 2026-05-04 23:23 | 19.44332 | -99.06285 | 7302 ft | 16 kts | 13° |
| 2026-05-04 23:23 | 19.44399 | -99.06356 | 7303 ft | 17 kts | 256° |
| 2026-05-04 23:24 | 19.44337 | -99.06473 | 7303 ft | 21 kts | 239° |
| 2026-05-04 23:24 | 19.44249 | -99.06630 | 7303 ft | 27 kts | 239° |
| 2026-05-04 23:24 | 19.44151 | -99.06802 | 7304 ft | 28 kts | 239° |
| 2026-05-04 23:24 | 19.44049 | -99.06986 | 7304 ft | 30 kts | 239° |
| 2026-05-04 23:25 | 19.43976 | -99.07113 | 7304 ft | 31 kts | 238° |
| 2026-05-04 23:25 | 19.43885 | -99.07277 | 7303 ft | 26 kts | 240° |
| 2026-05-04 23:25 | 19.43753 | -99.07511 | 7302 ft | 29 kts | 239° |
| 2026-05-04 23:25 | 19.43652 | -99.07691 | 7302 ft | 28 kts | 239° |
| 2026-05-04 23:26 | 19.43557 | -99.07861 | 7302 ft | 28 kts | 239° |
| 2026-05-04 23:26 | 19.43488 | -99.07982 | 7303 ft | 29 kts | 239° |
| 2026-05-04 23:26 | 19.43399 | -99.08141 | 7302 ft | 21 kts | 240° |
| 2026-05-04 23:26 | 19.43336 | -99.08252 | 7302 ft | 16 kts | 239° |
| 2026-05-04 23:27 | 19.43293 | -99.08329 | 7302 ft | 9 kts | 239° |
| 2026-05-04 23:27 | 19.43272 | -99.08366 | 7302 ft | 7 kts | 239° |
| 2026-05-04 23:27 | 19.43256 | -99.08426 | 7301 ft | 7 kts | 300° |
| 2026-05-04 23:27 | 19.43285 | -99.08450 | 7301 ft | 3 kts | 328° |
| 2026-05-04 23:28 | 19.43304 | -99.08463 | 7301 ft | 3 kts | 328° |
| 2026-05-04 23:28 | 19.43316 | -99.08471 | 7301 ft | 3 kts | 328° |
| 2026-05-04 23:28 | 19.43318 | -99.08472 | 7301 ft | 0 kts | 328° |